createdAt,value
2019-04-21T14:38:29.821Z,48.5
2019-04-21T14:39:42.000Z,49.4
2019-04-21T14:40:54.193Z,48.1
2019-04-21T14:42:06.409Z,47.2
2019-04-21T14:43:18.605Z,49.7
2019-04-21T14:44:30.809Z,47.5
2019-04-21T14:45:43.004Z,45.5
2019-04-21T14:46:55.019Z,49.1
2019-04-21T14:48:07.394Z,46.3
2019-04-21T14:49:19.590Z,45.6
2019-04-21T14:50:31.807Z,44.9
2019-04-21T14:51:43.991Z,45.3
2019-04-21T14:52:56.198Z,46.8
2019-04-21T14:54:08.390Z,45.3
2019-04-21T14:55:20.629Z,44.6
2019-04-21T14:56:32.791Z,46.6
2019-04-21T14:57:44.097Z,47.4
2019-04-21T14:58:57.178Z,45.4
2019-04-21T15:00:09.373Z,48
2019-04-21T15:01:21.577Z,48.2
2019-04-21T15:02:33.780Z,46.7
2019-04-21T15:03:45.972Z,46.9
2019-04-21T15:04:58.183Z,45.8
2019-04-21T15:06:10.380Z,46.1
2019-04-21T15:07:22.579Z,47.2
2019-04-21T15:08:34.783Z,48.3
2019-04-21T15:09:46.975Z,44.6
2019-04-21T15:10:59.176Z,46.7
2019-04-21T15:12:11.370Z,45.8
2019-04-21T15:13:23.056Z,48
2019-04-21T15:14:35.768Z,45.9
2019-04-21T15:15:48.000Z,45.5
2019-04-21T15:17:00.162Z,49.8
2019-04-21T15:18:12.365Z,47.9
2019-04-21T15:19:24.568Z,45.9
2019-04-21T15:20:36.799Z,48.5
2019-04-21T15:21:48.973Z,47.2
2019-04-21T15:23:01.162Z,47.5
2019-04-21T15:24:13.367Z,46.4
2019-04-21T15:26:38.008Z,50.2
2019-04-21T15:27:49.955Z,47.7
2019-04-21T15:29:02.156Z,46.5
2019-04-21T15:30:14.356Z,48.9
2019-04-21T15:31:26.056Z,48
2019-04-21T15:32:38.754Z,47.5
2019-04-21T15:33:50.096Z,47.1
2019-04-21T15:35:03.015Z,47.3
2019-04-21T15:36:15.366Z,47.6
2019-04-21T15:37:27.554Z,48.2
2019-04-21T15:38:39.740Z,48
2019-04-21T15:39:51.940Z,45.7
2019-04-21T15:41:04.144Z,48
2019-04-21T15:42:16.357Z,48.5
2019-04-21T15:43:28.546Z,47.7
2019-04-21T15:44:40.742Z,48.8
2019-04-21T15:45:52.940Z,48.2
2019-04-21T15:47:05.147Z,47.2
2019-04-21T15:48:17.344Z,50.2
2019-04-21T15:49:29.530Z,48.9
2019-04-21T15:50:41.738Z,48
2019-04-21T15:51:53.930Z,48.8
2019-04-21T15:53:06.138Z,47.5
2019-04-21T15:54:18.033Z,49.7
2019-04-21T15:55:30.536Z,49
2019-04-21T15:56:42.743Z,48.5
2019-04-21T15:57:54.991Z,49.2
2019-04-21T15:59:07.134Z,50.6
2019-04-21T16:00:19.331Z,49
2019-04-21T16:01:31.766Z,49.7
2019-04-21T16:02:43.072Z,48.3
2019-04-21T16:03:55.923Z,49.3
2019-04-21T16:05:08.012Z,49
2019-04-21T16:06:20.326Z,49.1
2019-04-21T16:07:32.555Z,48.3
2019-04-21T16:08:44.727Z,48.4
2019-04-21T16:09:56.924Z,48.8
2019-04-21T16:11:09.128Z,49.8
2019-04-21T16:12:21.315Z,49.2
2019-04-21T16:13:33.514Z,48.9
2019-04-21T16:14:45.071Z,48.8
2019-04-21T16:15:57.914Z,49.5
2019-04-21T16:17:10.114Z,51.2
2019-04-21T16:18:22.314Z,50.1
2019-04-21T16:19:34.517Z,50
2019-04-21T16:21:58.903Z,51.2
2019-04-21T16:23:11.023Z,51.7
2019-04-21T16:24:23.304Z,53.2
2019-04-21T16:25:35.503Z,49.5
2019-04-21T16:26:47.710Z,49.6
2019-04-21T16:27:59.907Z,49.5
2019-04-21T16:29:12.106Z,49.9
2019-04-21T16:30:24.299Z,51.4
2019-04-21T16:31:36.514Z,49.7
2019-04-21T16:32:48.698Z,50.9
2019-04-21T16:34:00.893Z,50.8
2019-04-21T16:35:13.095Z,50.9
2019-04-21T16:36:25.308Z,53
2019-04-21T16:37:37.492Z,52
2019-04-21T16:38:49.693Z,52.4
2019-04-21T16:40:01.089Z,51.8
2019-04-21T16:41:14.009Z,52.6
2019-04-21T16:42:26.283Z,52
2019-04-21T16:43:38.478Z,50.7
2019-04-21T16:44:50.690Z,50.9
2019-04-21T16:46:02.885Z,50.6
2019-04-21T16:47:15.080Z,51.9
2019-04-21T16:48:27.283Z,51.9
2019-04-21T16:49:39.480Z,51.9
2019-04-21T16:50:51.688Z,52.7
2019-04-21T16:52:03.882Z,51.3
2019-04-21T16:53:16.072Z,52.9
2019-04-21T16:54:28.028Z,53.1
2019-04-21T16:55:40.047Z,53.2
2019-04-21T16:56:52.067Z,52.6
2019-04-21T16:58:04.872Z,53.1
2019-04-21T16:59:17.073Z,52.2
2019-04-21T17:00:29.273Z,53.1
2019-04-21T17:01:41.465Z,54.7
2019-04-21T17:02:53.663Z,53.4
2019-04-21T17:04:05.086Z,53.7
2019-04-21T17:05:18.072Z,54.9
2019-04-21T17:06:30.260Z,53.9
2019-04-21T17:07:42.664Z,54.8
2019-04-21T17:08:54.659Z,55.7
2019-04-21T17:10:06.861Z,54.9
2019-04-21T17:11:19.051Z,55.8
2019-04-21T17:12:31.253Z,56.3
2019-04-21T17:13:43.483Z,56.1
2019-04-21T17:14:55.659Z,56
2019-04-21T17:16:07.847Z,54.9
2019-04-21T17:17:20.053Z,55.6
2019-04-21T17:18:32.260Z,55.1
2019-04-21T17:19:44.046Z,55
2019-04-21T17:20:56.642Z,56.2
2019-04-21T17:22:08.846Z,55.8
2019-04-21T17:23:21.004Z,56
2019-04-21T17:24:33.357Z,56.1
2019-04-21T17:25:45.453Z,57.3
2019-04-21T17:26:57.643Z,56
2019-04-21T17:28:09.842Z,55.8
2019-04-21T17:29:22.042Z,57.5
2019-04-21T17:30:34.249Z,56.5
2019-04-21T17:31:46.044Z,58.3
2019-04-21T17:32:58.640Z,58.4
2019-04-21T17:34:10.846Z,57.7
2019-04-21T17:35:23.035Z,58.7
2019-04-21T17:36:35.236Z,57.5
2019-04-21T17:37:47.431Z,57.9
2019-04-21T17:38:59.636Z,57.2
2019-04-21T17:40:11.841Z,58.2
2019-04-21T17:41:24.032Z,59.3
2019-04-21T17:42:36.239Z,59.8
2019-04-21T17:43:48.433Z,61.6
2019-04-21T17:45:00.627Z,60.6
2019-04-21T17:46:12.832Z,61.9
2019-04-21T17:47:25.034Z,62.5
2019-04-21T17:48:37.231Z,64
2019-04-21T17:49:49.655Z,63.3
2019-04-21T17:51:01.630Z,63.1
2019-04-21T17:52:13.863Z,63.9
2019-04-21T17:53:26.042Z,62.2
2019-04-21T17:54:38.231Z,61.8
2019-04-21T17:55:50.429Z,60.5
2019-04-21T17:57:02.643Z,60.5
2019-04-21T17:58:14.816Z,59.2
2019-04-21T17:59:27.028Z,59
2019-04-21T18:00:39.221Z,60.8
2019-04-21T18:01:51.468Z,60.8
2019-04-21T18:03:03.062Z,60.3
2019-04-21T18:04:15.822Z,59.4
2019-04-21T18:05:28.097Z,58.7
2019-04-21T18:06:40.227Z,58.9
2019-04-21T18:07:52.416Z,59.2
2019-04-21T18:09:04.614Z,60.3
2019-04-21T18:10:16.806Z,59.3
2019-04-21T18:11:29.012Z,58.9
2019-04-21T18:12:41.697Z,60
2019-04-21T18:13:53.411Z,60.7
2019-04-21T18:15:05.606Z,61.4
2019-04-21T18:16:17.810Z,62.6
2019-04-21T18:17:30.015Z,61.3
2019-04-21T18:18:42.210Z,64.1
2019-04-21T18:19:54.412Z,62
2019-04-21T18:21:06.061Z,63.1
2019-04-21T18:22:18.811Z,64.4
2019-04-21T18:23:31.000Z,64
2019-04-21T18:24:43.197Z,64.8
2019-04-21T18:25:55.400Z,65.4
2019-04-21T18:27:07.608Z,65.2
2019-04-21T18:28:19.800Z,66.3
2019-04-21T18:29:32.003Z,66.6
2019-04-21T18:30:44.215Z,67.2
2019-04-21T18:31:56.406Z,67.4
2019-04-21T18:33:08.603Z,67.5
2019-04-21T18:34:20.824Z,68.1
2019-04-21T18:35:33.002Z,67.7
2019-04-21T18:36:45.192Z,67.7
2019-04-21T18:37:57.388Z,67.6
2019-04-21T18:39:09.064Z,69
2019-04-21T18:40:21.793Z,68
2019-04-21T18:41:33.984Z,68.7
2019-04-21T18:42:46.189Z,66
2019-04-21T18:43:58.039Z,68.1
2019-04-21T18:45:10.590Z,66.6
2019-04-21T18:46:22.791Z,65.9
2019-04-21T18:47:34.991Z,66.3
2019-04-21T18:48:47.208Z,66.1
2019-04-21T18:49:59.385Z,67
2019-04-21T18:51:11.584Z,67.2
2019-04-21T18:52:23.779Z,67.5
2019-04-21T18:53:35.975Z,68.8
2019-04-21T18:54:48.177Z,68.8
2019-04-21T18:56:00.929Z,69.2
2019-04-21T18:57:12.585Z,69.2
2019-04-21T18:58:24.786Z,66
2019-04-21T18:59:36.009Z,68.5
2019-04-21T19:00:49.017Z,68.3
2019-04-21T19:02:01.401Z,67.2
2019-04-21T19:03:13.581Z,67.4
2019-04-21T19:04:25.788Z,67.4
2019-04-21T19:05:37.009Z,67.3
2019-04-21T19:06:50.165Z,67.6
2019-04-21T19:08:02.370Z,68
2019-04-21T19:09:14.568Z,68.2
2019-04-21T19:10:26.765Z,68.4
2019-04-21T19:11:38.968Z,68.5
2019-04-21T19:12:51.171Z,67.8
2019-04-21T19:14:03.037Z,67.8
2019-04-21T19:15:15.574Z,68.4
2019-04-21T19:16:27.763Z,68.5
2019-04-21T19:17:39.963Z,68.9
2019-04-21T19:18:52.165Z,69.3
2019-04-21T19:20:04.362Z,68.8
2019-04-21T19:21:16.559Z,69.5
2019-04-21T19:22:28.757Z,69.9
2019-04-21T19:23:40.970Z,71
2019-04-21T19:24:53.158Z,70.5
2019-04-21T19:26:05.365Z,70.6
2019-04-21T19:27:17.559Z,70.5
2019-04-21T19:28:29.761Z,70.9
2019-04-21T19:29:41.952Z,72.6
2019-04-21T19:30:54.157Z,72.7
2019-04-21T19:32:06.359Z,72.1
2019-04-21T19:34:30.751Z,71.8
2019-04-21T19:35:42.095Z,71.9
2019-04-21T19:36:55.015Z,73.1
2019-04-21T19:38:07.407Z,72.9
2019-04-21T19:39:19.545Z,72.6
2019-04-21T19:40:31.756Z,72.6
2019-04-21T19:41:43.950Z,73.2
2019-04-21T19:42:56.015Z,73.5
2019-04-21T19:44:08.357Z,73
2019-04-21T19:45:20.547Z,73.3
2019-04-21T19:46:32.742Z,73.2
2019-04-21T19:47:44.940Z,73.1
2019-04-21T19:48:57.143Z,73.1
2019-04-21T19:50:09.345Z,72.6
2019-04-21T19:51:21.538Z,73.4
2019-04-21T19:52:33.731Z,73.4
2019-04-21T19:53:45.938Z,73.3
2019-04-21T19:54:58.141Z,73.2
2019-04-21T19:56:10.334Z,73.3
2019-04-21T19:57:22.537Z,73.3
2019-04-21T19:58:34.733Z,73.5
2019-04-21T19:59:46.940Z,73.6
2019-04-21T20:00:59.136Z,73.3
2019-04-21T20:02:11.343Z,74.3
2019-04-21T20:03:23.528Z,73.7
2019-04-21T20:04:35.729Z,73.4
2019-04-21T20:05:47.092Z,73.4
2019-04-21T20:07:00.127Z,73.4
2019-04-21T20:08:12.328Z,74.3
2019-04-21T20:09:24.522Z,73.3
2019-04-21T20:10:36.725Z,73.2
2019-04-21T20:11:48.927Z,72.5
2019-04-21T20:13:01.113Z,73.8
2019-04-21T20:14:13.319Z,73.5
2019-04-21T20:15:25.512Z,74.6
2019-04-21T20:16:37.715Z,74.7
2019-04-21T20:17:49.919Z,74.9
2019-04-21T20:19:02.110Z,75.5
2019-04-21T20:20:14.318Z,75.8
2019-04-21T20:21:26.518Z,76
2019-04-21T20:22:38.721Z,76
2019-04-21T20:23:50.919Z,75.9
2019-04-21T20:25:03.111Z,76.9
2019-04-21T20:26:15.353Z,77.1
2019-04-21T20:27:27.518Z,76.9
2019-04-21T20:28:39.071Z,76.7
2019-04-21T20:29:51.924Z,76.1
2019-04-21T20:31:04.113Z,75.8
2019-04-21T20:32:16.304Z,75.6
2019-04-21T20:33:28.510Z,75.6
2019-04-21T20:34:40.708Z,75.5
2019-04-21T20:35:52.905Z,75.5
2019-04-21T20:37:05.109Z,76.5
2019-04-21T20:38:17.318Z,76.9
2019-04-21T20:39:29.639Z,78.2
2019-04-21T20:40:41.071Z,78.9
2019-04-21T20:41:53.901Z,80.2
2019-04-21T20:43:06.106Z,79.6
2019-04-21T20:44:18.302Z,79.2
2019-04-21T20:45:30.505Z,79
2019-04-21T20:46:42.070Z,78.2
2019-04-21T20:47:54.901Z,78.5
2019-04-21T20:49:07.098Z,77.9
2019-04-21T20:50:19.030Z,77.6
2019-04-21T20:51:31.493Z,78.4
2019-04-21T20:52:43.708Z,78.6
2019-04-21T20:53:55.888Z,78.5
2019-04-21T20:55:08.091Z,79.4
2019-04-21T20:56:20.301Z,79.7
2019-04-21T20:57:32.497Z,78.7
2019-04-21T20:58:44.696Z,80.5
2019-04-21T20:59:56.895Z,80.9
2019-04-21T21:01:09.088Z,81
2019-04-21T21:02:21.298Z,81.1
2019-04-21T21:03:33.484Z,80.8
2019-04-21T21:04:45.682Z,80.7
2019-04-21T21:05:57.927Z,80.4
2019-04-21T21:07:10.084Z,80.4
2019-04-21T21:08:22.287Z,80.7
2019-04-21T21:09:34.048Z,79.7
2019-04-21T21:10:46.681Z,79.1
2019-04-21T21:11:58.884Z,82.2
2019-04-21T21:13:11.086Z,83.3
2019-04-21T21:14:23.284Z,84.4
2019-04-21T21:15:35.504Z,85.4
2019-04-21T21:16:47.066Z,86.3
2019-04-21T21:17:59.875Z,86.7
2019-04-21T21:19:12.087Z,86.4
2019-04-21T21:20:24.272Z,86.5
2019-04-21T21:21:36.048Z,85.7
2019-04-21T21:22:48.674Z,85.4
2019-04-21T21:24:00.874Z,85.3
2019-04-21T21:25:13.087Z,84.3
2019-04-21T21:26:25.273Z,84.8
2019-04-21T21:27:37.477Z,84.4
2019-04-21T21:28:49.682Z,85.2
2019-04-21T21:30:01.868Z,85.1
2019-04-21T21:31:14.064Z,85.8
2019-04-21T21:32:26.264Z,85.8
2019-04-21T21:33:38.463Z,85.1
2019-04-21T21:34:50.738Z,84.9
2019-04-21T21:36:02.860Z,86.3
2019-04-21T21:37:15.065Z,86.7
2019-04-21T21:38:27.264Z,85.6
2019-04-21T21:39:39.937Z,86.9
2019-04-21T21:40:51.664Z,87.5
2019-04-21T21:42:03.862Z,86.6
2019-04-21T21:43:16.063Z,86
2019-04-21T21:44:28.266Z,86.7
2019-04-21T21:45:40.449Z,87.1
2019-04-21T21:46:52.653Z,86.3
2019-04-21T21:48:04.854Z,87.8
2019-04-21T21:49:17.052Z,89.6
2019-04-21T21:50:29.255Z,90
2019-04-21T21:51:41.453Z,89.7
2019-04-21T21:52:53.652Z,89.8
2019-04-21T21:54:05.856Z,89.6
2019-04-21T21:55:18.054Z,90.7
2019-04-21T21:56:30.250Z,91.3
2019-04-21T21:57:42.454Z,90.6
2019-04-21T21:58:54.647Z,90.6
2019-04-21T22:00:06.858Z,90.8
2019-04-21T22:01:19.004Z,90.7
2019-04-21T22:02:31.236Z,91
2019-04-21T22:03:43.443Z,90.6
2019-04-21T22:04:55.640Z,90.1
2019-04-21T22:06:07.847Z,90.2
2019-04-21T22:07:20.004Z,89.8
2019-04-21T22:08:32.237Z,89.8
2019-04-21T22:09:44.437Z,89.6
2019-04-21T22:10:56.651Z,88.9
2019-04-21T22:12:08.843Z,88.4
2019-04-21T22:13:21.043Z,87.7
2019-04-21T22:14:33.242Z,87.5
2019-04-21T22:15:45.044Z,87.6
2019-04-21T22:16:57.641Z,87.7
2019-04-21T22:18:09.844Z,87.5
2019-04-21T22:19:22.031Z,87.8
2019-04-21T22:20:34.235Z,87.9
2019-04-21T22:21:46.425Z,88
2019-04-21T22:22:58.630Z,87.8
2019-04-21T22:24:10.831Z,87.2
2019-04-21T22:25:23.273Z,86.4
2019-04-21T22:26:35.230Z,86.6
2019-04-21T22:27:47.427Z,86.3
2019-04-21T22:28:59.629Z,86.1
2019-04-21T22:30:11.830Z,86
2019-04-21T22:31:24.027Z,85.6
2019-04-21T22:32:36.217Z,84.6
2019-04-21T22:33:48.420Z,84.3
2019-04-21T22:35:00.621Z,84.2
2019-04-21T22:36:12.820Z,84.2
2019-04-21T22:37:25.015Z,84.6
2019-04-21T22:38:37.021Z,84.5
2019-04-21T22:39:49.419Z,84.4
2019-04-21T22:41:01.621Z,83.7
2019-04-21T22:42:13.820Z,84
2019-04-21T22:43:26.018Z,84.3
2019-04-21T22:44:38.214Z,84.3
2019-04-21T22:45:50.419Z,84.8
2019-04-21T22:47:02.061Z,84.3
2019-04-21T22:48:14.811Z,83.6
2019-04-21T22:49:27.007Z,84.8
2019-04-21T22:50:39.201Z,85
2019-04-21T22:51:51.407Z,85
2019-04-21T22:53:03.607Z,84.7
2019-04-21T22:54:15.806Z,84.1
2019-04-21T22:55:28.001Z,84.3
2019-04-21T22:56:40.212Z,84
2019-04-21T22:57:52.040Z,83.4
2019-04-21T22:59:04.611Z,83.2
2019-04-21T23:00:16.803Z,83.9
2019-04-21T23:01:29.008Z,84.5
2019-04-21T23:02:41.208Z,84.5
2019-04-21T23:03:53.405Z,84.1
2019-04-21T23:05:05.599Z,83.9
2019-04-21T23:06:18.172Z,83.6
2019-04-21T23:07:29.997Z,83.9
2019-04-21T23:08:42.020Z,83.7
2019-04-21T23:09:54.397Z,83.5
2019-04-21T23:11:06.597Z,84.4
2019-04-21T23:12:18.814Z,84.6
2019-04-21T23:13:30.099Z,84.3
2019-04-21T23:14:43.197Z,84
2019-04-21T23:15:55.396Z,84
2019-04-21T23:17:07.595Z,83.3
2019-04-21T23:18:19.791Z,84
2019-04-21T23:19:31.098Z,84.2
2019-04-21T23:20:44.183Z,84.2
2019-04-21T23:21:56.384Z,84.3
2019-04-21T23:23:08.583Z,84.2
2019-04-21T23:24:20.786Z,84
2019-04-21T23:25:32.985Z,83.4
2019-04-21T23:26:45.183Z,83.3
2019-04-21T23:27:57.384Z,83.2
2019-04-21T23:29:09.585Z,82.8
2019-04-21T23:30:21.779Z,83.5
2019-04-21T23:31:33.985Z,82.6
2019-04-21T23:32:46.271Z,83.1
2019-04-21T23:33:58.385Z,83.3
2019-04-21T23:35:10.578Z,84.1
2019-04-21T23:36:22.771Z,84.2
2019-04-21T23:37:34.973Z,83.5
2019-04-21T23:38:47.177Z,83.6
2019-04-21T23:39:59.368Z,82.9
2019-04-21T23:41:11.577Z,83.2
2019-04-21T23:42:23.767Z,83.2
2019-04-21T23:43:35.973Z,83
2019-04-21T23:44:48.169Z,83
2019-04-21T23:46:00.366Z,83.2
2019-04-21T23:47:12.573Z,83.2
2019-04-21T23:48:24.772Z,84
2019-04-21T23:49:36.966Z,84
2019-04-21T23:50:49.164Z,83.6
2019-04-21T23:52:01.355Z,83.9
2019-04-21T23:53:13.564Z,83.9
2019-04-21T23:54:25.763Z,83.9
2019-04-21T23:55:37.963Z,84
2019-04-21T23:56:50.161Z,83.8
2019-04-21T23:58:02.362Z,84.3
2019-04-21T23:59:14.055Z,84.1
